Terminal Aerodrome Forecast
Issued by NWS Bismarck, ND

Home | Current Version | Previous Version | Text Only | Print | Product List | Glossary Off
Versions: 1 2 3 4 5 6 7 8 9 10 11 12 13 14 15 16 17 18 19 20 21

000
FTUS43 KBIS 021445 AAE
TAFBIS
TAF AMD
KBIS 021445Z 0215/0312 05004KT 1SM BR VV002
     FM021530 06004KT 4SM BR BKN005
     FM021600 08005KT P6SM SCT010
     FM021800 14007KT P6SM SCT070=

USA.gov is the U.S. government's official web portal to all federal, state and local government web resources and services.